createdAt,value
2022-10-15T00:00:40.228Z,100.00
2022-10-15T00:03:35.415Z,100.00
2022-10-15T00:06:23.544Z,100.00
2022-10-15T00:09:18.317Z,100.00
2022-10-15T00:12:07.094Z,100.00
2022-10-15T00:14:55.618Z,100.00
2022-10-15T00:17:44.336Z,100.00
2022-10-15T00:20:32.435Z,100.00
2022-10-15T00:23:21.375Z,100.00
2022-10-15T00:26:13.083Z,100.00
2022-10-15T00:29:01.788Z,100.00
2022-10-15T00:31:50.261Z,100.00
2022-10-15T00:34:38.713Z,100.00
2022-10-15T00:37:27.564Z,100.00
2022-10-15T00:40:15.886Z,100.00
2022-10-15T00:43:03.825Z,100.00
2022-10-15T00:45:51.813Z,100.00
2022-10-15T00:48:41.044Z,100.00
2022-10-15T00:51:45.168Z,100.00
2022-10-15T00:54:38.630Z,100.00
2022-10-15T00:57:27.130Z,100.00
2022-10-15T01:00:19.421Z,100.00
2022-10-15T01:03:08.206Z,100.00
2022-10-15T01:05:57.214Z,100.00
2022-10-15T01:08:45.916Z,100.00
2022-10-15T01:11:41.153Z,100.00
2022-10-15T01:14:40.082Z,100.00
2022-10-15T01:17:35.319Z,100.00
2022-10-15T01:20:49.050Z,100.00
2022-10-15T01:24:26.506Z,100.00
2022-10-15T01:27:31.204Z,100.00
2022-10-15T01:30:30.437Z,100.00
2022-10-15T01:33:32.269Z,100.00
2022-10-15T01:36:27.672Z,100.00
2022-10-15T01:39:22.075Z,100.00
2022-10-15T01:42:17.614Z,100.00
2022-10-15T01:45:10.855Z,100.00
2022-10-15T01:48:21.324Z,100.00
2022-10-15T01:51:13.375Z,100.00
2022-10-15T01:54:02.345Z,100.00
2022-10-15T01:56:51.678Z,100.00
2022-10-15T01:59:43.446Z,100.00
2022-10-15T02:02:31.639Z,100.00
2022-10-15T02:05:25.750Z,100.00
2022-10-15T02:08:27.921Z,100.00
2022-10-15T02:11:18.896Z,100.00
2022-10-15T02:14:13.822Z,100.00
2022-10-15T02:17:09.611Z,100.00
2022-10-15T02:20:05.405Z,100.00
2022-10-15T02:23:01.551Z,100.00
2022-10-15T02:25:52.534Z,100.00
2022-10-15T02:28:44.424Z,100.00
2022-10-15T02:31:35.507Z,100.00
2022-10-15T02:34:29.717Z,100.00
2022-10-15T02:37:23.256Z,100.00
2022-10-15T02:40:12.481Z,100.00
2022-10-15T02:43:03.532Z,100.00
2022-10-15T02:45:52.001Z,100.00
2022-10-15T02:48:41.830Z,100.00
2022-10-15T02:51:33.870Z,100.00
2022-10-15T02:54:21.919Z,100.00
2022-10-15T02:57:10.867Z,100.00
2022-10-15T03:00:00.565Z,100.00
2022-10-15T03:02:49.350Z,100.00
2022-10-15T03:05:40.323Z,100.00
2022-10-15T03:08:29.166Z,100.00
2022-10-15T03:11:17.722Z,100.00
2022-10-15T03:14:05.862Z,100.00
2022-10-15T03:16:55.568Z,100.00
2022-10-15T03:19:44.507Z,100.00
2022-10-15T03:22:32.937Z,100.00
2022-10-15T03:25:21.736Z,100.00
2022-10-15T03:28:13.245Z,100.00
2022-10-15T03:31:02.551Z,100.00
2022-10-15T03:33:51.403Z,100.00
2022-10-15T03:36:42.350Z,100.00
2022-10-15T03:39:31.671Z,100.00
2022-10-15T03:42:23.422Z,100.00
2022-10-15T03:45:12.540Z,100.00
2022-10-15T03:48:01.216Z,100.00
2022-10-15T03:50:51.498Z,100.00
2022-10-15T03:53:40.391Z,100.00
2022-10-15T03:56:28.559Z,100.00
2022-10-15T03:59:22.312Z,100.00
2022-10-15T04:02:16.980Z,100.00
2022-10-15T04:05:07.182Z,100.00
2022-10-15T04:07:58.184Z,100.00
2022-10-15T04:10:47.119Z,100.00
2022-10-15T04:13:35.569Z,100.00
2022-10-15T04:16:24.042Z,100.00
2022-10-15T04:19:13.004Z,100.00
2022-10-15T04:22:01.333Z,100.00
2022-10-15T04:24:58.076Z,100.00
2022-10-15T04:27:48.528Z,100.00
2022-10-15T04:30:38.726Z,100.00
2022-10-15T04:33:29.502Z,100.00
2022-10-15T04:36:21.198Z,100.00
2022-10-15T04:39:16.064Z,100.00
2022-10-15T04:42:05.926Z,100.00
2022-10-15T04:44:55.195Z,100.00
2022-10-15T04:47:43.436Z,100.00
2022-10-15T04:50:37.759Z,100.00
2022-10-15T04:53:52.935Z,100.00
2022-10-15T04:56:41.320Z,100.00
2022-10-15T04:59:29.586Z,100.00
2022-10-15T05:02:41.395Z,100.00
2022-10-15T05:05:37.106Z,100.00
2022-10-15T05:08:29.121Z,100.00
2022-10-15T05:11:43.140Z,100.00
2022-10-15T05:14:35.317Z,100.00
2022-10-15T05:17:27.207Z,100.00
2022-10-15T05:20:16.139Z,100.00
2022-10-15T05:23:05.933Z,100.00
2022-10-15T05:25:55.500Z,100.00
2022-10-15T05:28:45.399Z,100.00
2022-10-15T05:31:41.992Z,100.00
2022-10-15T05:34:50.105Z,100.00
2022-10-15T05:37:38.577Z,100.00
2022-10-15T05:40:27.726Z,100.00
2022-10-15T05:43:38.880Z,100.00
2022-10-15T05:46:31.879Z,100.00
2022-10-15T05:49:19.769Z,100.00
2022-10-15T05:52:13.774Z,100.00
2022-10-15T05:55:21.235Z,100.00
2022-10-15T05:58:09.623Z,100.00
2022-10-15T06:00:59.912Z,100.00
2022-10-15T06:03:47.840Z,100.00
2022-10-15T06:06:35.804Z,100.00
2022-10-15T06:09:25.029Z,100.00
2022-10-15T06:12:13.013Z,100.00
2022-10-15T06:15:00.893Z,100.00
2022-10-15T06:17:51.872Z,100.00
2022-10-15T06:20:40.179Z,100.00
2022-10-15T06:23:28.816Z,100.00
2022-10-15T06:26:16.896Z,100.00
2022-10-15T06:29:06.916Z,100.00
2022-10-15T06:31:55.313Z,100.00
2022-10-15T06:34:43.212Z,100.00
2022-10-15T06:37:31.549Z,100.00
2022-10-15T06:40:20.592Z,100.00
2022-10-15T06:43:11.555Z,100.00
2022-10-15T06:46:01.338Z,100.00
2022-10-15T06:48:51.334Z,100.00
2022-10-15T06:51:39.421Z,100.00
2022-10-15T06:54:27.443Z,100.00
2022-10-15T06:57:16.135Z,100.00
2022-10-15T07:00:05.331Z,100.00
2022-10-15T07:02:53.920Z,100.00
2022-10-15T07:05:42.061Z,100.00
2022-10-15T07:08:30.459Z,100.00
2022-10-15T07:11:18.973Z,100.00
2022-10-15T07:14:07.144Z,100.00
2022-10-15T07:16:56.313Z,100.00
2022-10-15T07:19:44.471Z,100.00
2022-10-15T07:22:32.664Z,100.00
2022-10-15T07:25:20.737Z,100.00
2022-10-15T07:28:09.099Z,100.00
2022-10-15T07:31:02.928Z,100.00
2022-10-15T07:33:50.900Z,100.00
2022-10-15T07:36:39.418Z,100.00
2022-10-15T07:39:29.088Z,100.00
2022-10-15T07:42:17.525Z,100.00
2022-10-15T07:45:08.462Z,100.00
2022-10-15T07:47:56.402Z,100.00
2022-10-15T07:50:44.713Z,100.00
2022-10-15T07:53:33.767Z,100.00
2022-10-15T07:56:21.856Z,100.00
2022-10-15T07:59:09.805Z,100.00
2022-10-15T08:01:57.847Z,100.00
2022-10-15T08:04:46.151Z,100.00
2022-10-15T08:07:34.628Z,100.00
2022-10-15T08:10:23.395Z,100.00
2022-10-15T08:13:11.080Z,100.00
2022-10-15T08:16:00.325Z,100.00
2022-10-15T08:18:49.195Z,100.00
2022-10-15T08:21:38.535Z,100.00
2022-10-15T08:24:26.795Z,100.00
2022-10-15T08:27:15.331Z,100.00
2022-10-15T08:30:04.154Z,100.00
2022-10-15T08:32:52.819Z,100.00
2022-10-15T08:35:43.720Z,100.00
2022-10-15T08:38:33.772Z,100.00
2022-10-15T08:45:35.772Z,100.00
2022-10-15T08:48:30.855Z,100.00
2022-10-15T08:51:23.227Z,100.00
2022-10-15T08:54:17.631Z,100.00
2022-10-15T08:57:44.888Z,100.00
2022-10-15T09:00:52.108Z,100.00
2022-10-15T09:04:15.078Z,100.00
2022-10-15T09:07:21.699Z,100.00
2022-10-15T09:10:18.287Z,100.00
2022-10-15T09:13:13.960Z,100.00
2022-10-15T09:16:13.597Z,100.00
2022-10-15T09:19:12.550Z,100.00
2022-10-15T09:22:03.290Z,100.00
2022-10-15T09:24:52.553Z,100.00
2022-10-15T09:27:40.962Z,100.00
2022-10-15T09:30:37.816Z,100.00
2022-10-15T09:33:38.798Z,100.00
2022-10-15T09:36:40.258Z,100.00
2022-10-15T09:39:46.734Z,100.00
2022-10-15T09:42:38.135Z,100.00
2022-10-15T09:45:26.017Z,100.00
2022-10-15T09:48:18.320Z,100.00
2022-10-15T09:51:16.797Z,100.00
2022-10-15T09:54:16.493Z,100.00
2022-10-15T09:57:09.863Z,100.00
2022-10-15T10:00:00.780Z,100.00
2022-10-15T10:03:06.712Z,100.00
2022-10-15T10:06:02.855Z,100.00
2022-10-15T10:09:00.615Z,100.00
2022-10-15T10:11:53.646Z,100.00
2022-10-15T10:14:46.988Z,100.00
2022-10-15T10:17:35.125Z,100.00
2022-10-15T10:20:24.868Z,100.00
2022-10-15T10:23:24.077Z,100.00
2022-10-15T10:26:15.382Z,100.00
2022-10-15T10:29:15.783Z,100.00
2022-10-15T10:32:21.410Z,100.00
2022-10-15T10:35:22.798Z,100.00
2022-10-15T10:38:23.804Z,100.00
2022-10-15T10:41:12.563Z,99.29
2022-10-15T10:44:00.615Z,98.31
2022-10-15T10:47:06.771Z,97.36
2022-10-15T10:49:57.321Z,94.70
2022-10-15T10:52:45.463Z,95.94
2022-10-15T10:55:39.345Z,95.16
2022-10-15T10:58:33.366Z,93.95
2022-10-15T11:01:20.634Z,91.26
2022-10-15T11:04:15.461Z,92.28
2022-10-15T11:07:17.005Z,92.84
2022-10-15T11:10:16.883Z,91.51
2022-10-15T11:13:26.447Z,90.11
2022-10-15T11:16:30.215Z,90.90
2022-10-15T11:19:54.546Z,91.87
2022-10-15T11:22:48.202Z,90.86
2022-10-15T11:25:46.993Z,91.33
2022-10-15T11:28:50.507Z,90.76
2022-10-15T11:32:01.718Z,90.74
2022-10-15T11:35:40.804Z,89.47
2022-10-15T11:38:39.758Z,89.09
2022-10-15T11:41:40.199Z,88.62
2022-10-15T11:44:47.856Z,88.95
2022-10-15T11:47:47.762Z,88.92
2022-10-15T11:50:44.762Z,88.52
2022-10-15T11:54:06.517Z,87.07
2022-10-15T11:56:59.463Z,87.03
2022-10-15T11:59:55.868Z,86.08
2022-10-15T12:02:45.374Z,84.91
2022-10-15T12:05:38.916Z,84.15
2022-10-15T12:08:30.863Z,82.14
2022-10-15T12:11:24.236Z,79.37
2022-10-15T12:14:22.375Z,81.42
2022-10-15T12:17:22.341Z,80.30
2022-10-15T12:20:16.423Z,81.60
2022-10-15T12:23:05.093Z,80.97
2022-10-15T12:25:54.613Z,79.65
2022-10-15T12:28:50.568Z,79.00
2022-10-15T12:31:48.031Z,79.28
2022-10-15T12:34:41.519Z,78.52
2022-10-15T12:37:33.913Z,78.37
2022-10-15T12:40:29.496Z,76.41
2022-10-15T12:43:20.858Z,76.39
2022-10-15T12:46:10.770Z,76.77
2022-10-15T12:48:58.805Z,77.29
2022-10-15T12:51:46.796Z,75.45
2022-10-15T12:54:41.453Z,76.57
2022-10-15T12:58:08.093Z,76.32
2022-10-15T13:00:56.820Z,75.01
2022-10-15T13:03:52.672Z,75.06
2022-10-15T13:06:40.708Z,76.24
2022-10-15T13:09:31.773Z,76.35
2022-10-15T13:12:26.381Z,75.87
2022-10-15T13:15:16.948Z,76.31
2022-10-15T13:18:11.101Z,75.57
2022-10-15T13:23:50.397Z,74.38
2022-10-15T13:26:39.188Z,75.51
2022-10-15T13:29:28.547Z,74.17
2022-10-15T13:32:16.975Z,74.21
2022-10-15T13:35:12.226Z,74.04
2022-10-15T13:38:03.133Z,73.42
2022-10-15T13:40:53.804Z,71.97
2022-10-15T13:43:54.497Z,72.77
2022-10-15T13:46:42.675Z,71.92
2022-10-15T13:49:31.013Z,72.12
2022-10-15T13:52:19.632Z,73.06
2022-10-15T13:55:17.106Z,72.68
2022-10-15T13:58:17.446Z,72.50
2022-10-15T14:01:10.030Z,72.10
2022-10-15T14:03:57.859Z,71.11
2022-10-15T14:06:56.925Z,71.77
2022-10-15T14:09:47.988Z,71.67
2022-10-15T14:12:36.321Z,71.12
2022-10-15T14:15:57.385Z,70.46
2022-10-15T14:18:49.370Z,70.61
2022-10-15T14:21:46.904Z,70.39
2022-10-15T14:24:38.007Z,69.75
2022-10-15T14:27:28.530Z,69.68
2022-10-15T14:30:25.132Z,70.22
2022-10-15T14:33:31.637Z,69.67
2022-10-15T14:36:29.986Z,70.01
2022-10-15T14:39:29.954Z,70.09
2022-10-15T14:42:31.390Z,69.54
2022-10-15T14:45:25.971Z,70.49
2022-10-15T14:48:20.720Z,71.28
2022-10-15T14:51:17.849Z,72.17
2022-10-15T14:54:06.587Z,72.71
2022-10-15T14:56:55.325Z,71.74
2022-10-15T14:59:44.710Z,72.63
2022-10-15T15:02:32.493Z,74.49
2022-10-15T15:05:24.410Z,75.01
2022-10-15T15:08:12.747Z,75.91
2022-10-15T15:11:04.350Z,75.76
2022-10-15T15:13:54.879Z,76.32
2022-10-15T15:16:43.274Z,77.66
2022-10-15T15:19:32.092Z,77.58
2022-10-15T15:22:25.662Z,78.75
2022-10-15T15:25:19.303Z,79.83
2022-10-15T15:28:14.162Z,80.25
2022-10-15T15:31:05.905Z,81.32
2022-10-15T15:33:54.349Z,82.19
2022-10-15T15:36:43.090Z,83.53
2022-10-15T15:39:31.358Z,85.14
2022-10-15T15:42:22.970Z,85.28
2022-10-15T15:45:20.300Z,86.10
2022-10-15T15:48:08.287Z,87.70
2022-10-15T15:51:04.340Z,88.97
2022-10-15T15:53:52.615Z,89.59
2022-10-15T15:56:41.174Z,90.10
2022-10-15T15:59:29.286Z,90.80
2022-10-15T16:02:17.628Z,91.61
2022-10-15T16:05:07.613Z,92.14
2022-10-15T16:07:56.644Z,93.72
2022-10-15T16:10:45.332Z,94.05
2022-10-15T16:13:34.201Z,95.04
2022-10-15T16:16:24.014Z,94.76
2022-10-15T16:19:12.149Z,95.71
2022-10-15T16:22:00.489Z,96.17
2022-10-15T16:24:49.255Z,97.29
2022-10-15T16:27:37.499Z,98.18
2022-10-15T16:30:25.719Z,99.18
2022-10-15T16:33:14.558Z,99.75
2022-10-15T16:36:03.154Z,100.00
2022-10-15T16:38:51.227Z,100.00
2022-10-15T16:41:39.222Z,100.00
2022-10-15T16:44:27.564Z,100.00
2022-10-15T16:47:16.207Z,100.00
2022-10-15T16:50:05.259Z,100.00
2022-10-15T16:52:53.666Z,100.00
2022-10-15T16:55:41.709Z,100.00
2022-10-15T16:58:31.202Z,100.00
2022-10-15T17:01:22.435Z,100.00
2022-10-15T17:04:10.663Z,100.00
2022-10-15T17:06:59.017Z,100.00
2022-10-15T17:12:40.596Z,100.00
2022-10-15T17:15:28.923Z,100.00
2022-10-15T17:18:16.984Z,100.00
2022-10-15T17:21:07.368Z,100.00
2022-10-15T17:23:57.558Z,100.00
2022-10-15T17:26:47.558Z,100.00
2022-10-15T17:29:35.894Z,100.00
2022-10-15T17:32:25.655Z,100.00
2022-10-15T17:35:14.918Z,100.00
2022-10-15T17:38:03.189Z,100.00
2022-10-15T17:40:51.434Z,100.00
2022-10-15T17:43:40.330Z,100.00
2022-10-15T17:46:30.105Z,100.00
2022-10-15T17:49:18.943Z,100.00
2022-10-15T17:52:06.907Z,100.00
2022-10-15T17:54:55.153Z,100.00
2022-10-15T17:57:43.664Z,100.00
2022-10-15T18:00:31.857Z,100.00
2022-10-15T18:03:20.471Z,100.00
2022-10-15T18:06:12.197Z,100.00
2022-10-15T18:09:00.478Z,100.00
2022-10-15T18:11:49.963Z,100.00
2022-10-15T18:14:38.399Z,100.00
2022-10-15T18:17:27.405Z,100.00
2022-10-15T18:20:16.968Z,100.00
2022-10-15T18:23:06.610Z,100.00
2022-10-15T18:26:02.318Z,100.00
2022-10-15T18:28:53.742Z,100.00
2022-10-15T18:31:42.037Z,100.00
2022-10-15T18:34:32.669Z,100.00
2022-10-15T18:37:20.621Z,100.00
2022-10-15T18:40:11.317Z,100.00
2022-10-15T18:42:59.262Z,100.00
2022-10-15T18:45:51.142Z,100.00
2022-10-15T18:48:39.367Z,100.00
2022-10-15T18:51:28.355Z,100.00
2022-10-15T18:54:16.270Z,100.00
2022-10-15T18:57:05.198Z,100.00
2022-10-15T19:02:41.417Z,100.00
2022-10-15T19:05:29.601Z,100.00
2022-10-15T19:08:20.711Z,100.00
2022-10-15T19:11:09.501Z,100.00
2022-10-15T19:13:59.363Z,100.00
2022-10-15T19:16:49.064Z,100.00
2022-10-15T19:19:38.316Z,100.00
2022-10-15T19:22:28.428Z,100.00
2022-10-15T19:25:18.072Z,100.00
2022-10-15T19:28:06.673Z,100.00
2022-10-15T19:31:00.268Z,100.00
2022-10-15T19:33:48.461Z,100.00
2022-10-15T19:36:40.007Z,100.00
2022-10-15T19:39:28.557Z,100.00
2022-10-15T19:42:18.444Z,100.00
2022-10-15T19:45:07.803Z,100.00
2022-10-15T19:48:01.442Z,100.00
2022-10-15T19:50:50.505Z,100.00
2022-10-15T19:53:39.549Z,100.00
2022-10-15T19:56:28.454Z,100.00
2022-10-15T19:59:16.845Z,100.00
2022-10-15T20:02:05.087Z,100.00
2022-10-15T20:04:53.697Z,100.00
2022-10-15T20:07:42.034Z,100.00
2022-10-15T20:10:30.654Z,100.00
2022-10-15T20:13:20.418Z,100.00
2022-10-15T20:16:11.017Z,100.00
2022-10-15T20:19:00.623Z,100.00
2022-10-15T20:24:38.184Z,100.00
2022-10-15T20:27:26.682Z,100.00
2022-10-15T20:30:15.365Z,100.00
2022-10-15T20:33:03.799Z,100.00
2022-10-15T20:35:51.627Z,100.00
2022-10-15T20:38:40.296Z,100.00
2022-10-15T20:41:28.301Z,100.00
2022-10-15T20:44:17.069Z,100.00
2022-10-15T20:47:08.500Z,100.00
2022-10-15T20:49:56.677Z,100.00
2022-10-15T20:52:46.018Z,100.00
2022-10-15T20:55:35.399Z,100.00
2022-10-15T20:58:24.177Z,100.00
2022-10-15T21:01:12.561Z,100.00
2022-10-15T21:04:01.093Z,100.00
2022-10-15T21:06:49.469Z,100.00
2022-10-15T21:09:38.087Z,100.00
2022-10-15T21:12:26.342Z,100.00
2022-10-15T21:15:15.043Z,100.00
2022-10-15T21:18:03.766Z,100.00
2022-10-15T21:20:51.509Z,100.00
2022-10-15T21:23:41.499Z,100.00
2022-10-15T21:26:29.559Z,100.00
2022-10-15T21:29:18.103Z,100.00
2022-10-15T21:32:06.911Z,100.00
2022-10-15T21:34:54.989Z,100.00
2022-10-15T21:37:43.312Z,100.00
2022-10-15T21:40:31.328Z,100.00
2022-10-15T21:43:19.948Z,100.00
2022-10-15T21:46:10.006Z,100.00
2022-10-15T21:48:59.510Z,100.00
2022-10-15T21:51:47.751Z,100.00
2022-10-15T21:54:35.929Z,100.00
2022-10-15T21:57:23.920Z,100.00
2022-10-15T22:00:16.494Z,100.00
2022-10-15T22:03:05.224Z,100.00
2022-10-15T22:05:53.531Z,100.00
2022-10-15T22:08:42.505Z,100.00
2022-10-15T22:11:33.078Z,100.00
2022-10-15T22:14:21.164Z,100.00
2022-10-15T22:17:09.119Z,100.00
2022-10-15T22:19:57.149Z,100.00
2022-10-15T22:22:45.277Z,100.00
2022-10-15T22:25:33.779Z,100.00
2022-10-15T22:28:21.742Z,100.00
2022-10-15T22:31:12.505Z,100.00
2022-10-15T22:34:01.862Z,100.00
2022-10-15T22:36:50.404Z,100.00
2022-10-15T22:39:39.318Z,100.00
2022-10-15T22:42:27.948Z,100.00
2022-10-15T22:45:16.806Z,100.00
2022-10-15T22:48:04.978Z,100.00
2022-10-15T22:50:57.553Z,100.00
2022-10-15T22:53:45.576Z,100.00
2022-10-15T22:56:34.358Z,100.00
2022-10-15T22:59:22.674Z,100.00
2022-10-15T23:02:10.880Z,100.00
2022-10-15T23:04:59.097Z,100.00
2022-10-15T23:07:47.488Z,100.00
2022-10-15T23:10:35.574Z,100.00
2022-10-15T23:13:23.743Z,100.00
2022-10-15T23:16:15.402Z,100.00
2022-10-15T23:19:06.799Z,100.00
2022-10-15T23:21:56.244Z,100.00
2022-10-15T23:24:44.459Z,100.00
2022-10-15T23:27:32.223Z,100.00
2022-10-15T23:30:25.116Z,100.00
2022-10-15T23:33:13.528Z,100.00
2022-10-15T23:36:04.140Z,100.00
2022-10-15T23:38:53.229Z,100.00
2022-10-15T23:41:41.651Z,100.00
2022-10-15T23:44:29.871Z,100.00
2022-10-15T23:47:18.078Z,100.00
2022-10-15T23:50:07.652Z,100.00
2022-10-15T23:52:56.906Z,100.00
2022-10-15T23:55:45.271Z,100.00
2022-10-15T23:58:34.339Z,100.00
